sensor_id;sensor_type;location;lat;lon;timestamp;temperature;humidity
21582;DHT22;10952;50.836;4.348;2023-09-18T00:01:41;23.20;99.90
21582;DHT22;10952;50.836;4.348;2023-09-18T00:04:06;23.20;99.90
21582;DHT22;10952;50.836;4.348;2023-09-18T00:06:33;23.30;99.90
21582;DHT22;10952;50.836;4.348;2023-09-18T00:08:59;23.30;99.90
21582;DHT22;10952;50.836;4.348;2023-09-18T00:11:25;23.30;99.90
21582;DHT22;10952;50.836;4.348;2023-09-18T00:13:50;23.40;99.90
21582;DHT22;10952;50.836;4.348;2023-09-18T00:16:16;23.50;99.90
21582;DHT22;10952;50.836;4.348;2023-09-18T00:18:42;23.30;99.90
21582;DHT22;10952;50.836;4.348;2023-09-18T00:21:10;23.30;99.90
21582;DHT22;10952;50.836;4.348;2023-09-18T00:23:36;23.30;99.90
21582;DHT22;10952;50.836;4.348;2023-09-18T00:26:02;23.30;99.90
21582;DHT22;10952;50.836;4.348;2023-09-18T00:28:28;23.30;99.90
21582;DHT22;10952;50.836;4.348;2023-09-18T00:30:54;23.30;99.90
21582;DHT22;10952;50.836;4.348;2023-09-18T00:33:20;23.20;99.90
21582;DHT22;10952;50.836;4.348;2023-09-18T00:35:50;23.10;99.90
21582;DHT22;10952;50.836;4.348;2023-09-18T00:38:17;23.20;99.90
21582;DHT22;10952;50.836;4.348;2023-09-18T00:40:43;23.20;99.90
21582;DHT22;10952;50.836;4.348;2023-09-18T00:43:09;23.00;99.90
21582;DHT22;10952;50.836;4.348;2023-09-18T00:45:41;22.90;99.90
21582;DHT22;10952;50.836;4.348;2023-09-18T00:48:08;22.90;99.90
21582;DHT22;10952;50.836;4.348;2023-09-18T00:50:35;22.90;99.90
21582;DHT22;10952;50.836;4.348;2023-09-18T00:53:01;22.80;99.90
21582;DHT22;10952;50.836;4.348;2023-09-18T00:55:28;22.80;99.90
21582;DHT22;10952;50.836;4.348;2023-09-18T00:57:55;22.70;99.90
21582;DHT22;10952;50.836;4.348;2023-09-18T01:00:22;22.60;99.90
21582;DHT22;10952;50.836;4.348;2023-09-18T01:02:48;22.50;99.90
21582;DHT22;10952;50.836;4.348;2023-09-18T01:05:14;22.50;99.90
21582;DHT22;10952;50.836;4.348;2023-09-18T01:07:43;22.40;99.90
21582;DHT22;10952;50.836;4.348;2023-09-18T01:10:10;22.30;99.90
21582;DHT22;10952;50.836;4.348;2023-09-18T01:12:45;22.30;99.90
21582;DHT22;10952;50.836;4.348;2023-09-18T01:15:19;22.30;99.90
21582;DHT22;10952;50.836;4.348;2023-09-18T01:17:47;22.30;99.90
21582;DHT22;10952;50.836;4.348;2023-09-18T01:20:13;22.40;99.90
21582;DHT22;10952;50.836;4.348;2023-09-18T01:22:39;22.30;99.90
21582;DHT22;10952;50.836;4.348;2023-09-18T01:25:05;22.30;99.90
21582;DHT22;10952;50.836;4.348;2023-09-18T01:27:32;22.20;99.90
21582;DHT22;10952;50.836;4.348;2023-09-18T01:29:58;22.10;99.90
21582;DHT22;10952;50.836;4.348;2023-09-18T01:32:25;22.10;99.90
21582;DHT22;10952;50.836;4.348;2023-09-18T01:34:54;22.10;99.90
21582;DHT22;10952;50.836;4.348;2023-09-18T01:37:25;22.10;99.90
21582;DHT22;10952;50.836;4.348;2023-09-18T01:39:52;22.10;99.90
21582;DHT22;10952;50.836;4.348;2023-09-18T01:42:19;22.10;99.90
21582;DHT22;10952;50.836;4.348;2023-09-18T01:44:47;22.10;99.90
21582;DHT22;10952;50.836;4.348;2023-09-18T01:47:16;22.10;99.90
21582;DHT22;10952;50.836;4.348;2023-09-18T01:49:43;22.10;99.90
21582;DHT22;10952;50.836;4.348;2023-09-18T01:52:09;22.20;99.90
21582;DHT22;10952;50.836;4.348;2023-09-18T01:54:35;22.10;99.90
21582;DHT22;10952;50.836;4.348;2023-09-18T01:57:02;22.10;99.90
21582;DHT22;10952;50.836;4.348;2023-09-18T01:59:28;22.10;99.90
21582;DHT22;10952;50.836;4.348;2023-09-18T02:01:54;21.90;99.90
21582;DHT22;10952;50.836;4.348;2023-09-18T02:04:21;21.80;99.90
21582;DHT22;10952;50.836;4.348;2023-09-18T02:06:49;21.90;99.90
21582;DHT22;10952;50.836;4.348;2023-09-18T02:09:14;21.80;99.90
21582;DHT22;10952;50.836;4.348;2023-09-18T02:11:42;21.90;99.90
21582;DHT22;10952;50.836;4.348;2023-09-18T02:14:08;22.00;99.90
21582;DHT22;10952;50.836;4.348;2023-09-18T02:16:36;22.10;99.90
21582;DHT22;10952;50.836;4.348;2023-09-18T02:19:03;22.10;99.90
21582;DHT22;10952;50.836;4.348;2023-09-18T02:21:30;22.00;99.90
21582;DHT22;10952;50.836;4.348;2023-09-18T02:23:56;22.10;99.90
21582;DHT22;10952;50.836;4.348;2023-09-18T02:26:23;22.10;99.90
21582;DHT22;10952;50.836;4.348;2023-09-18T02:28:51;22.00;99.90
21582;DHT22;10952;50.836;4.348;2023-09-18T02:31:17;21.80;99.90
21582;DHT22;10952;50.836;4.348;2023-09-18T02:33:43;21.70;99.90
21582;DHT22;10952;50.836;4.348;2023-09-18T02:36:10;21.60;99.90
21582;DHT22;10952;50.836;4.348;2023-09-18T02:38:36;21.60;99.90
21582;DHT22;10952;50.836;4.348;2023-09-18T02:41:01;21.60;99.90
21582;DHT22;10952;50.836;4.348;2023-09-18T02:43:27;21.60;99.90
21582;DHT22;10952;50.836;4.348;2023-09-18T02:45:53;21.70;99.90
21582;DHT22;10952;50.836;4.348;2023-09-18T02:48:19;21.70;99.90
21582;DHT22;10952;50.836;4.348;2023-09-18T02:50:45;21.70;99.90
21582;DHT22;10952;50.836;4.348;2023-09-18T02:55:52;21.60;99.90
21582;DHT22;10952;50.836;4.348;2023-09-18T02:58:18;21.60;99.90
21582;DHT22;10952;50.836;4.348;2023-09-18T03:00:49;21.50;99.90
21582;DHT22;10952;50.836;4.348;2023-09-18T03:03:16;21.50;99.90
21582;DHT22;10952;50.836;4.348;2023-09-18T03:05:43;21.50;99.90
21582;DHT22;10952;50.836;4.348;2023-09-18T03:08:12;21.50;99.90
21582;DHT22;10952;50.836;4.348;2023-09-18T03:10:41;21.60;99.90
21582;DHT22;10952;50.836;4.348;2023-09-18T03:13:08;21.50;99.90
21582;DHT22;10952;50.836;4.348;2023-09-18T03:15:34;21.60;99.90
21582;DHT22;10952;50.836;4.348;2023-09-18T03:18:01;21.70;99.90
21582;DHT22;10952;50.836;4.348;2023-09-18T03:20:28;21.80;99.90
21582;DHT22;10952;50.836;4.348;2023-09-18T03:22:56;21.90;99.90
21582;DHT22;10952;50.836;4.348;2023-09-18T03:25:23;21.80;99.90
21582;DHT22;10952;50.836;4.348;2023-09-18T03:27:51;21.80;99.90
21582;DHT22;10952;50.836;4.348;2023-09-18T03:30:18;21.70;99.90
21582;DHT22;10952;50.836;4.348;2023-09-18T03:32:44;21.70;99.90
21582;DHT22;10952;50.836;4.348;2023-09-18T03:35:11;21.70;99.90
21582;DHT22;10952;50.836;4.348;2023-09-18T03:37:50;21.70;99.90
21582;DHT22;10952;50.836;4.348;2023-09-18T03:40:17;21.60;99.90
21582;DHT22;10952;50.836;4.348;2023-09-18T03:42:43;21.60;99.90
21582;DHT22;10952;50.836;4.348;2023-09-18T03:45:09;21.50;99.90
21582;DHT22;10952;50.836;4.348;2023-09-18T03:47:37;21.40;99.90
21582;DHT22;10952;50.836;4.348;2023-09-18T03:50:11;21.30;99.90
21582;DHT22;10952;50.836;4.348;2023-09-18T03:52:38;21.30;99.90
21582;DHT22;10952;50.836;4.348;2023-09-18T03:55:07;21.40;99.90
21582;DHT22;10952;50.836;4.348;2023-09-18T03:57:34;21.40;99.90
21582;DHT22;10952;50.836;4.348;2023-09-18T04:00:04;21.30;99.90
21582;DHT22;10952;50.836;4.348;2023-09-18T04:02:32;21.30;99.90
21582;DHT22;10952;50.836;4.348;2023-09-18T04:05:00;21.30;99.90
21582;DHT22;10952;50.836;4.348;2023-09-18T04:07:27;21.30;99.90
21582;DHT22;10952;50.836;4.348;2023-09-18T04:09:54;21.30;99.90
21582;DHT22;10952;50.836;4.348;2023-09-18T04:12:20;21.30;99.90
21582;DHT22;10952;50.836;4.348;2023-09-18T04:14:45;21.30;99.90
21582;DHT22;10952;50.836;4.348;2023-09-18T04:17:11;21.30;99.90
21582;DHT22;10952;50.836;4.348;2023-09-18T04:19:37;21.40;99.90
21582;DHT22;10952;50.836;4.348;2023-09-18T04:22:03;21.40;99.90
21582;DHT22;10952;50.836;4.348;2023-09-18T04:24:29;21.30;99.90
21582;DHT22;10952;50.836;4.348;2023-09-18T04:26:55;21.30;99.90
21582;DHT22;10952;50.836;4.348;2023-09-18T04:29:22;21.20;99.90
21582;DHT22;10952;50.836;4.348;2023-09-18T04:31:48;21.20;99.90
21582;DHT22;10952;50.836;4.348;2023-09-18T04:34:14;21.20;99.90
21582;DHT22;10952;50.836;4.348;2023-09-18T04:36:40;21.20;99.90
21582;DHT22;10952;50.836;4.348;2023-09-18T04:39:07;21.20;99.90
21582;DHT22;10952;50.836;4.348;2023-09-18T04:41:35;21.10;99.90
21582;DHT22;10952;50.836;4.348;2023-09-18T04:44:01;21.10;99.90
21582;DHT22;10952;50.836;4.348;2023-09-18T04:46:28;21.10;99.90
21582;DHT22;10952;50.836;4.348;2023-09-18T04:48:55;21.10;99.90
21582;DHT22;10952;50.836;4.348;2023-09-18T04:51:21;21.10;99.90
21582;DHT22;10952;50.836;4.348;2023-09-18T04:53:47;21.00;99.90
21582;DHT22;10952;50.836;4.348;2023-09-18T04:56:13;21.00;99.90
21582;DHT22;10952;50.836;4.348;2023-09-18T04:58:38;20.90;99.90
21582;DHT22;10952;50.836;4.348;2023-09-18T05:01:04;20.90;99.90
21582;DHT22;10952;50.836;4.348;2023-09-18T05:03:33;20.90;99.90
21582;DHT22;10952;50.836;4.348;2023-09-18T05:05:59;20.90;99.90
21582;DHT22;10952;50.836;4.348;2023-09-18T05:08:25;20.90;99.90
21582;DHT22;10952;50.836;4.348;2023-09-18T05:10:51;20.80;99.90
21582;DHT22;10952;50.836;4.348;2023-09-18T05:13:16;20.90;99.90
21582;DHT22;10952;50.836;4.348;2023-09-18T05:15:42;20.90;99.90
21582;DHT22;10952;50.836;4.348;2023-09-18T05:18:08;20.80;99.90
21582;DHT22;10952;50.836;4.348;2023-09-18T05:20:34;20.70;99.90
21582;DHT22;10952;50.836;4.348;2023-09-18T05:23:00;20.70;99.90
21582;DHT22;10952;50.836;4.348;2023-09-18T05:25:28;20.80;99.90
21582;DHT22;10952;50.836;4.348;2023-09-18T05:27:59;20.70;99.90
21582;DHT22;10952;50.836;4.348;2023-09-18T05:30:27;20.70;99.90
21582;DHT22;10952;50.836;4.348;2023-09-18T05:32:57;20.60;99.90
21582;DHT22;10952;50.836;4.348;2023-09-18T05:35:23;20.50;99.90
21582;DHT22;10952;50.836;4.348;2023-09-18T05:37:52;20.50;99.90
21582;DHT22;10952;50.836;4.348;2023-09-18T05:40:20;20.40;99.90
21582;DHT22;10952;50.836;4.348;2023-09-18T05:42:45;20.40;99.90
21582;DHT22;10952;50.836;4.348;2023-09-18T05:45:16;20.50;99.90
21582;DHT22;10952;50.836;4.348;2023-09-18T05:47:43;20.50;99.90
21582;DHT22;10952;50.836;4.348;2023-09-18T05:50:10;20.30;99.90
21582;DHT22;10952;50.836;4.348;2023-09-18T05:52:40;20.40;99.90
21582;DHT22;10952;50.836;4.348;2023-09-18T05:55:06;20.50;99.90
21582;DHT22;10952;50.836;4.348;2023-09-18T05:57:35;20.40;99.90
21582;DHT22;10952;50.836;4.348;2023-09-18T06:00:01;20.30;99.90
21582;DHT22;10952;50.836;4.348;2023-09-18T06:02:28;20.30;99.90
21582;DHT22;10952;50.836;4.348;2023-09-18T06:04:56;20.30;99.90
21582;DHT22;10952;50.836;4.348;2023-09-18T06:07:32;20.30;99.90
21582;DHT22;10952;50.836;4.348;2023-09-18T06:09:59;20.30;99.90
21582;DHT22;10952;50.836;4.348;2023-09-18T06:12:25;20.30;99.90
21582;DHT22;10952;50.836;4.348;2023-09-18T06:14:51;20.40;99.90
21582;DHT22;10952;50.836;4.348;2023-09-18T06:17:17;20.30;99.90
21582;DHT22;10952;50.836;4.348;2023-09-18T06:19:44;20.20;99.90
21582;DHT22;10952;50.836;4.348;2023-09-18T06:22:12;20.20;99.90
21582;DHT22;10952;50.836;4.348;2023-09-18T06:24:39;20.20;99.90
21582;DHT22;10952;50.836;4.348;2023-09-18T06:27:06;20.20;99.90
21582;DHT22;10952;50.836;4.348;2023-09-18T06:29:33;20.30;99.90
21582;DHT22;10952;50.836;4.348;2023-09-18T06:32:00;20.30;99.90
21582;DHT22;10952;50.836;4.348;2023-09-18T06:34:26;20.30;99.90
21582;DHT22;10952;50.836;4.348;2023-09-18T06:36:53;20.40;99.90
21582;DHT22;10952;50.836;4.348;2023-09-18T06:39:19;20.40;99.90
21582;DHT22;10952;50.836;4.348;2023-09-18T06:41:48;20.40;99.90
21582;DHT22;10952;50.836;4.348;2023-09-18T06:44:14;20.40;99.90
21582;DHT22;10952;50.836;4.348;2023-09-18T06:46:40;20.40;99.90
21582;DHT22;10952;50.836;4.348;2023-09-18T06:49:06;20.30;99.90
21582;DHT22;10952;50.836;4.348;2023-09-18T06:51:32;20.40;99.90
21582;DHT22;10952;50.836;4.348;2023-09-18T06:53:57;20.40;99.90
21582;DHT22;10952;50.836;4.348;2023-09-18T06:56:24;20.40;99.90
21582;DHT22;10952;50.836;4.348;2023-09-18T06:58:50;20.40;99.90
21582;DHT22;10952;50.836;4.348;2023-09-18T07:01:18;20.50;99.90
21582;DHT22;10952;50.836;4.348;2023-09-18T07:03:45;20.50;99.90
21582;DHT22;10952;50.836;4.348;2023-09-18T07:06:14;20.40;99.90
21582;DHT22;10952;50.836;4.348;2023-09-18T07:08:43;20.40;99.90
21582;DHT22;10952;50.836;4.348;2023-09-18T07:11:08;20.40;99.90
21582;DHT22;10952;50.836;4.348;2023-09-18T07:13:34;20.40;99.90
21582;DHT22;10952;50.836;4.348;2023-09-18T07:16:00;20.50;99.90
21582;DHT22;10952;50.836;4.348;2023-09-18T07:18:26;20.50;99.90
21582;DHT22;10952;50.836;4.348;2023-09-18T07:20:53;20.40;99.90
21582;DHT22;10952;50.836;4.348;2023-09-18T07:23:20;20.50;99.90
21582;DHT22;10952;50.836;4.348;2023-09-18T07:25:48;20.40;99.90
21582;DHT22;10952;50.836;4.348;2023-09-18T07:28:14;20.50;99.90
21582;DHT22;10952;50.836;4.348;2023-09-18T07:30:46;20.50;99.90
21582;DHT22;10952;50.836;4.348;2023-09-18T07:33:13;20.60;99.90
21582;DHT22;10952;50.836;4.348;2023-09-18T07:35:52;20.60;99.90
21582;DHT22;10952;50.836;4.348;2023-09-18T07:38:19;20.50;99.90
21582;DHT22;10952;50.836;4.348;2023-09-18T07:40:46;20.40;99.90
21582;DHT22;10952;50.836;4.348;2023-09-18T07:43:13;20.50;99.90
21582;DHT22;10952;50.836;4.348;2023-09-18T07:45:39;20.50;99.90
21582;DHT22;10952;50.836;4.348;2023-09-18T07:48:07;20.50;99.90
21582;DHT22;10952;50.836;4.348;2023-09-18T07:50:34;20.60;99.90
21582;DHT22;10952;50.836;4.348;2023-09-18T07:53:01;20.70;99.90
21582;DHT22;10952;50.836;4.348;2023-09-18T07:55:27;20.70;99.90
21582;DHT22;10952;50.836;4.348;2023-09-18T07:57:54;20.80;99.90
21582;DHT22;10952;50.836;4.348;2023-09-18T08:00:20;20.90;99.90
21582;DHT22;10952;50.836;4.348;2023-09-18T08:02:48;20.90;99.90
21582;DHT22;10952;50.836;4.348;2023-09-18T08:05:16;21.10;99.90
21582;DHT22;10952;50.836;4.348;2023-09-18T08:07:42;21.10;99.90
21582;DHT22;10952;50.836;4.348;2023-09-18T08:10:08;21.20;99.90
21582;DHT22;10952;50.836;4.348;2023-09-18T08:12:35;21.20;99.90
21582;DHT22;10952;50.836;4.348;2023-09-18T08:15:01;21.20;99.90
21582;DHT22;10952;50.836;4.348;2023-09-18T08:17:28;21.30;99.90
21582;DHT22;10952;50.836;4.348;2023-09-18T08:19:55;21.20;99.90
21582;DHT22;10952;50.836;4.348;2023-09-18T08:22:21;21.30;99.90
21582;DHT22;10952;50.836;4.348;2023-09-18T08:24:47;21.50;99.90
21582;DHT22;10952;50.836;4.348;2023-09-18T08:27:14;21.60;99.90
21582;DHT22;10952;50.836;4.348;2023-09-18T08:29:43;21.80;99.90
21582;DHT22;10952;50.836;4.348;2023-09-18T08:32:09;21.70;99.90
21582;DHT22;10952;50.836;4.348;2023-09-18T08:34:35;21.70;99.90
21582;DHT22;10952;50.836;4.348;2023-09-18T08:37:02;21.70;99.90
21582;DHT22;10952;50.836;4.348;2023-09-18T08:39:27;21.70;99.90
21582;DHT22;10952;50.836;4.348;2023-09-18T08:41:58;21.60;99.90
21582;DHT22;10952;50.836;4.348;2023-09-18T08:44:26;21.50;99.90
21582;DHT22;10952;50.836;4.348;2023-09-18T08:46:57;21.50;99.90
21582;DHT22;10952;50.836;4.348;2023-09-18T08:49:26;21.60;99.90
21582;DHT22;10952;50.836;4.348;2023-09-18T08:51:55;21.50;99.90
21582;DHT22;10952;50.836;4.348;2023-09-18T08:54:22;21.60;99.90
21582;DHT22;10952;50.836;4.348;2023-09-18T08:56:51;21.50;99.90
21582;DHT22;10952;50.836;4.348;2023-09-18T08:59:20;21.70;99.90
21582;DHT22;10952;50.836;4.348;2023-09-18T09:01:47;21.80;99.90
21582;DHT22;10952;50.836;4.348;2023-09-18T09:04:13;21.80;99.90
21582;DHT22;10952;50.836;4.348;2023-09-18T09:06:39;21.70;99.90
21582;DHT22;10952;50.836;4.348;2023-09-18T09:09:05;21.60;99.90
21582;DHT22;10952;50.836;4.348;2023-09-18T09:11:31;21.60;99.90
21582;DHT22;10952;50.836;4.348;2023-09-18T09:14:23;21.60;99.90
21582;DHT22;10952;50.836;4.348;2023-09-18T09:16:55;21.70;99.90
21582;DHT22;10952;50.836;4.348;2023-09-18T09:19:32;21.70;99.90
21582;DHT22;10952;50.836;4.348;2023-09-18T09:21:59;21.60;99.90
21582;DHT22;10952;50.836;4.348;2023-09-18T09:24:43;21.40;99.90
21582;DHT22;10952;50.836;4.348;2023-09-18T09:27:09;21.50;99.90
21582;DHT22;10952;50.836;4.348;2023-09-18T09:29:36;21.60;99.90
21582;DHT22;10952;50.836;4.348;2023-09-18T09:32:18;21.70;99.90
21582;DHT22;10952;50.836;4.348;2023-09-18T09:34:45;21.80;99.90
21582;DHT22;10952;50.836;4.348;2023-09-18T09:37:11;21.80;99.90
21582;DHT22;10952;50.836;4.348;2023-09-18T09:39:51;21.80;99.90
21582;DHT22;10952;50.836;4.348;2023-09-18T09:42:19;21.90;99.90
21582;DHT22;10952;50.836;4.348;2023-09-18T09:45:11;21.80;99.90
21582;DHT22;10952;50.836;4.348;2023-09-18T09:47:37;21.80;99.90
21582;DHT22;10952;50.836;4.348;2023-09-18T09:50:15;21.80;99.90
21582;DHT22;10952;50.836;4.348;2023-09-18T09:52:54;21.70;99.90
21582;DHT22;10952;50.836;4.348;2023-09-18T09:57:52;21.80;99.90
21582;DHT22;10952;50.836;4.348;2023-09-18T10:00:19;21.70;99.90
21582;DHT22;10952;50.836;4.348;2023-09-18T10:02:57;21.80;99.90
21582;DHT22;10952;50.836;4.348;2023-09-18T10:05:30;21.90;99.90
21582;DHT22;10952;50.836;4.348;2023-09-18T10:08:02;21.80;99.90
21582;DHT22;10952;50.836;4.348;2023-09-18T10:10:36;21.80;99.90
21582;DHT22;10952;50.836;4.348;2023-09-18T10:13:12;21.80;99.90
21582;DHT22;10952;50.836;4.348;2023-09-18T10:15:39;21.70;99.90
21582;DHT22;10952;50.836;4.348;2023-09-18T10:18:18;21.60;99.90
21582;DHT22;10952;50.836;4.348;2023-09-18T10:20:47;21.60;99.90
21582;DHT22;10952;50.836;4.348;2023-09-18T10:23:25;21.60;99.90
21582;DHT22;10952;50.836;4.348;2023-09-18T10:25:55;21.50;99.90
21582;DHT22;10952;50.836;4.348;2023-09-18T10:28:23;21.60;99.90
21582;DHT22;10952;50.836;4.348;2023-09-18T10:30:50;21.60;99.90
21582;DHT22;10952;50.836;4.348;2023-09-18T10:33:17;21.70;99.90
21582;DHT22;10952;50.836;4.348;2023-09-18T10:35:43;21.70;99.90
21582;DHT22;10952;50.836;4.348;2023-09-18T10:38:12;21.50;99.90
21582;DHT22;10952;50.836;4.348;2023-09-18T10:40:40;21.50;99.90
21582;DHT22;10952;50.836;4.348;2023-09-18T10:43:08;21.60;99.90
21582;DHT22;10952;50.836;4.348;2023-09-18T10:45:35;21.60;99.90
21582;DHT22;10952;50.836;4.348;2023-09-18T10:48:02;21.70;99.90
21582;DHT22;10952;50.836;4.348;2023-09-18T10:50:29;21.80;99.90
21582;DHT22;10952;50.836;4.348;2023-09-18T10:52:57;22.10;99.90
21582;DHT22;10952;50.836;4.348;2023-09-18T10:55:24;22.40;99.90
21582;DHT22;10952;50.836;4.348;2023-09-18T10:57:59;22.90;99.90
21582;DHT22;10952;50.836;4.348;2023-09-18T11:00:26;24.00;99.90
21582;DHT22;10952;50.836;4.348;2023-09-18T11:05:38;27.00;99.90
21582;DHT22;10952;50.836;4.348;2023-09-18T11:13:36;28.70;99.90
21582;DHT22;10952;50.836;4.348;2023-09-18T11:19:16;29.80;99.90
21582;DHT22;10952;50.836;4.348;2023-09-18T11:21:42;30.30;99.90
21582;DHT22;10952;50.836;4.348;2023-09-18T11:24:17;30.30;99.90
21582;DHT22;10952;50.836;4.348;2023-09-18T11:26:45;29.30;99.90
21582;DHT22;10952;50.836;4.348;2023-09-18T11:29:17;28.50;99.90
21582;DHT22;10952;50.836;4.348;2023-09-18T11:31:51;27.40;99.90
21582;DHT22;10952;50.836;4.348;2023-09-18T11:34:26;26.60;99.90
21582;DHT22;10952;50.836;4.348;2023-09-18T11:36:52;25.70;99.90
21582;DHT22;10952;50.836;4.348;2023-09-18T11:39:38;25.40;99.90
21582;DHT22;10952;50.836;4.348;2023-09-18T11:42:17;25.90;99.90
21582;DHT22;10952;50.836;4.348;2023-09-18T11:44:44;26.30;99.90
21582;DHT22;10952;50.836;4.348;2023-09-18T11:47:16;26.60;99.90
21582;DHT22;10952;50.836;4.348;2023-09-18T11:49:58;27.10;99.90
21582;DHT22;10952;50.836;4.348;2023-09-18T11:52:29;27.40;99.90
21582;DHT22;10952;50.836;4.348;2023-09-18T11:54:59;27.00;99.90
21582;DHT22;10952;50.836;4.348;2023-09-18T11:57:26;26.70;99.90
21582;DHT22;10952;50.836;4.348;2023-09-18T11:59:54;27.40;99.90
21582;DHT22;10952;50.836;4.348;2023-09-18T12:02:31;27.20;99.90
21582;DHT22;10952;50.836;4.348;2023-09-18T12:05:11;27.10;99.90
21582;DHT22;10952;50.836;4.348;2023-09-18T12:07:40;27.70;99.90
21582;DHT22;10952;50.836;4.348;2023-09-18T12:10:10;27.90;99.90
21582;DHT22;10952;50.836;4.348;2023-09-18T12:12:36;28.10;99.90
21582;DHT22;10952;50.836;4.348;2023-09-18T12:15:02;28.10;99.90
21582;DHT22;10952;50.836;4.348;2023-09-18T12:17:29;28.40;99.90
21582;DHT22;10952;50.836;4.348;2023-09-18T12:19:55;29.10;99.90
21582;DHT22;10952;50.836;4.348;2023-09-18T12:22:27;29.40;99.90
21582;DHT22;10952;50.836;4.348;2023-09-18T12:24:55;29.70;99.90
21582;DHT22;10952;50.836;4.348;2023-09-18T12:27:36;30.00;99.90
21582;DHT22;10952;50.836;4.348;2023-09-18T12:30:02;29.60;99.90
21582;DHT22;10952;50.836;4.348;2023-09-18T12:32:30;29.90;99.90
21582;DHT22;10952;50.836;4.348;2023-09-18T12:34:58;30.30;99.90
21582;DHT22;10952;50.836;4.348;2023-09-18T12:37:24;30.20;99.90
21582;DHT22;10952;50.836;4.348;2023-09-18T12:39:50;30.50;99.90
21582;DHT22;10952;50.836;4.348;2023-09-18T12:42:20;30.20;99.90
21582;DHT22;10952;50.836;4.348;2023-09-18T12:44:49;30.10;99.90
21582;DHT22;10952;50.836;4.348;2023-09-18T12:47:15;29.80;99.90
21582;DHT22;10952;50.836;4.348;2023-09-18T12:49:40;30.00;99.90
21582;DHT22;10952;50.836;4.348;2023-09-18T12:52:06;29.80;99.90
21582;DHT22;10952;50.836;4.348;2023-09-18T12:57:05;29.30;99.90
21582;DHT22;10952;50.836;4.348;2023-09-18T12:59:36;28.70;99.90
21582;DHT22;10952;50.836;4.348;2023-09-18T13:02:06;28.30;99.90
21582;DHT22;10952;50.836;4.348;2023-09-18T13:04:34;27.80;99.90
21582;DHT22;10952;50.836;4.348;2023-09-18T13:07:14;27.80;99.90
21582;DHT22;10952;50.836;4.348;2023-09-18T13:09:41;27.40;99.90
21582;DHT22;10952;50.836;4.348;2023-09-18T13:12:08;27.30;99.90
21582;DHT22;10952;50.836;4.348;2023-09-18T13:15:02;27.00;99.90
21582;DHT22;10952;50.836;4.348;2023-09-18T13:17:45;26.60;99.90
21582;DHT22;10952;50.836;4.348;2023-09-18T13:20:18;26.40;99.90
21582;DHT22;10952;50.836;4.348;2023-09-18T13:22:50;26.30;99.90
21582;DHT22;10952;50.836;4.348;2023-09-18T13:25:25;25.90;99.90
21582;DHT22;10952;50.836;4.348;2023-09-18T13:27:53;25.90;99.90
21582;DHT22;10952;50.836;4.348;2023-09-18T13:30:21;25.80;99.90
21582;DHT22;10952;50.836;4.348;2023-09-18T13:32:49;25.60;99.90
21582;DHT22;10952;50.836;4.348;2023-09-18T13:35:21;25.60;99.90
21582;DHT22;10952;50.836;4.348;2023-09-18T13:37:47;25.70;99.90
21582;DHT22;10952;50.836;4.348;2023-09-18T13:40:14;25.90;99.90
21582;DHT22;10952;50.836;4.348;2023-09-18T13:42:40;26.00;99.90
21582;DHT22;10952;50.836;4.348;2023-09-18T13:45:07;25.90;99.90
21582;DHT22;10952;50.836;4.348;2023-09-18T13:47:34;25.60;99.90
21582;DHT22;10952;50.836;4.348;2023-09-18T13:50:03;25.40;99.90
21582;DHT22;10952;50.836;4.348;2023-09-18T13:52:33;25.40;99.90
21582;DHT22;10952;50.836;4.348;2023-09-18T13:54:59;25.30;99.90
21582;DHT22;10952;50.836;4.348;2023-09-18T13:57:26;25.20;99.90
21582;DHT22;10952;50.836;4.348;2023-09-18T13:59:53;25.20;99.90
21582;DHT22;10952;50.836;4.348;2023-09-18T14:02:19;25.20;99.90
21582;DHT22;10952;50.836;4.348;2023-09-18T14:04:45;25.20;99.90
21582;DHT22;10952;50.836;4.348;2023-09-18T14:07:11;25.30;99.90
21582;DHT22;10952;50.836;4.348;2023-09-18T14:09:38;25.20;99.90
21582;DHT22;10952;50.836;4.348;2023-09-18T14:12:05;25.10;99.90
21582;DHT22;10952;50.836;4.348;2023-09-18T14:14:35;25.10;99.90
21582;DHT22;10952;50.836;4.348;2023-09-18T14:17:02;25.20;99.90
21582;DHT22;10952;50.836;4.348;2023-09-18T14:19:29;25.10;99.90
21582;DHT22;10952;50.836;4.348;2023-09-18T14:21:58;25.00;99.90
21582;DHT22;10952;50.836;4.348;2023-09-18T14:24:30;24.90;99.90
21582;DHT22;10952;50.836;4.348;2023-09-18T14:27:01;24.90;99.90
21582;DHT22;10952;50.836;4.348;2023-09-18T14:29:26;24.90;99.90
21582;DHT22;10952;50.836;4.348;2023-09-18T14:31:52;24.60;99.90
21582;DHT22;10952;50.836;4.348;2023-09-18T14:34:19;24.50;99.90
21582;DHT22;10952;50.836;4.348;2023-09-18T14:36:45;24.30;99.90
21582;DHT22;10952;50.836;4.348;2023-09-18T14:39:11;24.00;99.90
21582;DHT22;10952;50.836;4.348;2023-09-18T14:41:38;23.40;99.90
21582;DHT22;10952;50.836;4.348;2023-09-18T14:44:06;22.40;99.90
21582;DHT22;10952;50.836;4.348;2023-09-18T14:46:35;21.80;99.90
21582;DHT22;10952;50.836;4.348;2023-09-18T14:49:07;21.10;99.90
21582;DHT22;10952;50.836;4.348;2023-09-18T14:51:36;20.40;99.90
21582;DHT22;10952;50.836;4.348;2023-09-18T14:54:06;20.20;99.90
21582;DHT22;10952;50.836;4.348;2023-09-18T14:56:34;20.10;99.90
21582;DHT22;10952;50.836;4.348;2023-09-18T14:59:06;20.00;99.90
21582;DHT22;10952;50.836;4.348;2023-09-18T15:01:34;20.00;99.90
21582;DHT22;10952;50.836;4.348;2023-09-18T15:04:00;19.90;99.90
21582;DHT22;10952;50.836;4.348;2023-09-18T15:06:26;19.90;99.90
21582;DHT22;10952;50.836;4.348;2023-09-18T15:08:53;20.00;99.90
21582;DHT22;10952;50.836;4.348;2023-09-18T15:11:19;20.20;99.90
21582;DHT22;10952;50.836;4.348;2023-09-18T15:13:46;20.20;99.90
21582;DHT22;10952;50.836;4.348;2023-09-18T15:16:13;20.30;99.90
21582;DHT22;10952;50.836;4.348;2023-09-18T15:18:39;20.40;99.90
21582;DHT22;10952;50.836;4.348;2023-09-18T15:21:05;20.70;99.90
21582;DHT22;10952;50.836;4.348;2023-09-18T15:23:31;20.90;99.90
21582;DHT22;10952;50.836;4.348;2023-09-18T15:25:58;21.20;99.90
21582;DHT22;10952;50.836;4.348;2023-09-18T15:28:25;21.40;99.90
21582;DHT22;10952;50.836;4.348;2023-09-18T15:30:54;21.60;99.90
21582;DHT22;10952;50.836;4.348;2023-09-18T15:33:21;21.60;99.90
21582;DHT22;10952;50.836;4.348;2023-09-18T15:35:49;21.60;99.90
21582;DHT22;10952;50.836;4.348;2023-09-18T15:38:15;21.50;99.90
21582;DHT22;10952;50.836;4.348;2023-09-18T15:40:41;21.60;99.90
21582;DHT22;10952;50.836;4.348;2023-09-18T15:43:08;21.60;99.90
21582;DHT22;10952;50.836;4.348;2023-09-18T15:45:34;21.70;99.90
21582;DHT22;10952;50.836;4.348;2023-09-18T15:48:03;21.60;99.90
21582;DHT22;10952;50.836;4.348;2023-09-18T15:50:33;21.70;99.90
21582;DHT22;10952;50.836;4.348;2023-09-18T15:53:00;21.90;99.90
21582;DHT22;10952;50.836;4.348;2023-09-18T15:55:26;22.10;99.90